Time;durP1;ratioP1;P1;durP2;ratioP2;P2;SDS_P1;SDS_P2;PMS_P1;PMS_P2;Temp;Humidity;BMP_temperature;BMP_pressure;BME280_temperature;BME280_humidity;BME280_pressure;Samples;Min_cycle;Max_cycle;Signal;HPM_P1;HPM_P2
2024/01/21 00:02:01;;;;;;;16.13;8.38;;;2.30;99.90;;;;;;5067100;28;20228;-51
2024/01/21 00:04:27;;;;;;;15.57;9.18;;;2.30;99.90;;;;;;5083039;28;20760;-46
2024/01/21 00:06:53;;;;;;;15.10;8.88;;;2.40;99.90;;;;;;5083307;28;20216;-54
2024/01/21 00:09:19;;;;;;;17.02;9.52;;;2.40;99.90;;;;;;5081451;28;20703;-46
2024/01/21 00:11:44;;;;;;;14.55;9.10;;;2.40;99.90;;;;;;5083232;28;20657;-48
2024/01/21 00:14:10;;;;;;;17.35;9.68;;;2.40;99.90;;;;;;5083118;28;20225;-49
2024/01/21 00:16:36;;;;;;;15.00;9.10;;;2.40;99.90;;;;;;5065168;28;20246;-50
2024/01/21 00:19:02;;;;;;;15.60;9.15;;;2.40;99.90;;;;;;5083360;28;20591;-49
2024/01/21 00:21:29;;;;;;;17.48;9.10;;;2.40;99.90;;;;;;5083202;28;20209;-46
2024/01/21 00:23:55;;;;;;;15.38;8.10;;;2.40;99.90;;;;;;5083085;28;20218;-47
2024/01/21 00:26:21;;;;;;;12.77;8.02;;;2.40;99.90;;;;;;5083041;28;20220;-47
2024/01/21 00:28:47;;;;;;;16.20;8.73;;;2.50;99.90;;;;;;5081600;28;20556;-51
2024/01/21 00:31:13;;;;;;;13.02;8.45;;;2.50;99.90;;;;;;5082410;28;20186;-48
2024/01/21 00:33:39;;;;;;;15.18;8.77;;;2.50;99.90;;;;;;5081729;28;20329;-50
2024/01/21 00:36:07;;;;;;;14.10;8.57;;;2.50;99.90;;;;;;5083076;28;20197;-47
2024/01/21 00:38:33;;;;;;;14.23;8.77;;;2.50;99.90;;;;;;5079163;28;20251;-49
2024/01/21 00:40:59;;;;;;;12.73;8.70;;;2.50;99.90;;;;;;5083030;28;20202;-50
2024/01/21 00:43:25;;;;;;;16.00;7.82;;;2.50;99.90;;;;;;5082257;28;20241;-50
2024/01/21 00:45:53;;;;;;;14.60;8.70;;;2.50;99.90;;;;;;5082398;28;20186;-51
2024/01/21 00:48:18;;;;;;;15.57;8.85;;;2.50;99.90;;;;;;5082609;28;20189;-50
2024/01/21 00:50:44;;;;;;;13.13;8.55;;;2.50;99.90;;;;;;5081956;28;20190;-50
2024/01/21 00:53:10;;;;;;;13.38;8.15;;;2.50;99.90;;;;;;5081487;28;21200;-47
2024/01/21 00:55:36;;;;;;;13.75;7.85;;;2.50;99.90;;;;;;5080817;28;20190;-51
2024/01/21 00:58:02;;;;;;;14.77;8.23;;;2.60;99.90;;;;;;5083129;28;20223;-49
2024/01/21 01:00:28;;;;;;;11.60;8.18;;;2.60;99.90;;;;;;5082316;28;20259;-49
2024/01/21 01:02:54;;;;;;;14.70;9.02;;;2.60;99.90;;;;;;5082231;28;20197;-51
2024/01/21 01:05:20;;;;;;;14.80;8.98;;;2.60;99.90;;;;;;5081024;28;20190;-50
2024/01/21 01:07:46;;;;;;;16.23;8.68;;;2.60;99.90;;;;;;5081390;28;20755;-50
2024/01/21 01:10:12;;;;;;;16.33;9.70;;;2.50;99.90;;;;;;5082478;28;20190;-51
2024/01/21 01:12:40;;;;;;;15.98;9.38;;;2.60;99.90;;;;;;5082088;28;20182;-47
2024/01/21 01:15:09;;;;;;;14.77;9.30;;;2.60;99.90;;;;;;5080878;28;20193;-48
2024/01/21 01:17:35;;;;;;;16.13;9.73;;;2.60;99.90;;;;;;5082014;28;21258;-48
2024/01/21 01:20:01;;;;;;;15.35;9.30;;;2.60;99.90;;;;;;5081731;28;20198;-48
2024/01/21 01:22:27;;;;;;;15.07;9.35;;;2.60;99.90;;;;;;5080662;28;20288;-52
2024/01/21 01:24:52;;;;;;;16.25;9.43;;;2.50;99.90;;;;;;5081512;28;20478;-48
2024/01/21 01:27:18;;;;;;;17.40;10.17;;;2.50;99.90;;;;;;5081571;28;20448;-52
2024/01/21 01:29:44;;;;;;;15.13;9.18;;;2.60;99.90;;;;;;5081919;28;20190;-52
2024/01/21 01:32:10;;;;;;;15.05;9.27;;;2.50;99.90;;;;;;5081552;28;20337;-47
2024/01/21 01:34:37;;;;;;;15.73;9.98;;;2.50;99.90;;;;;;5082185;28;20704;-52
2024/01/21 01:37:04;;;;;;;16.48;9.13;;;2.50;99.90;;;;;;5081387;28;20197;-45
2024/01/21 01:39:30;;;;;;;13.95;8.70;;;2.50;99.90;;;;;;5080862;28;20267;-46
2024/01/21 01:41:56;;;;;;;14.95;8.70;;;2.60;99.90;;;;;;5081818;28;20178;-52
2024/01/21 01:44:22;;;;;;;14.43;8.50;;;2.60;99.90;;;;;;5063298;28;20226;-48
2024/01/21 01:46:48;;;;;;;12.63;8.07;;;2.60;99.90;;;;;;5081690;28;20236;-50
2024/01/21 01:49:14;;;;;;;17.38;9.52;;;2.60;99.90;;;;;;5081134;28;20182;-47
2024/01/21 01:51:41;;;;;;;13.35;8.45;;;2.60;99.90;;;;;;5081497;28;20192;-49
2024/01/21 01:54:08;;;;;;;14.18;9.27;;;2.60;99.90;;;;;;5079832;28;20190;-47
2024/01/21 01:56:34;;;;;;;13.80;8.68;;;2.60;99.90;;;;;;5081179;28;20778;-47
2024/01/21 01:59:03;;;;;;;12.40;8.32;;;2.60;99.90;;;;;;5081295;28;20250;-49
2024/01/21 02:01:30;;;;;;;14.07;8.35;;;2.70;99.90;;;;;;5081414;28;20193;-47
2024/01/21 02:03:56;;;;;;;15.45;9.05;;;2.70;99.90;;;;;;5081607;28;20308;-50
2024/01/21 02:06:22;;;;;;;14.60;8.63;;;2.60;99.90;;;;;;5080934;28;20593;-46
2024/01/21 02:08:48;;;;;;;14.00;8.38;;;2.60;99.90;;;;;;5081177;28;20194;-48
2024/01/21 02:11:14;;;;;;;14.75;8.35;;;2.60;99.90;;;;;;5080088;28;20207;-51
2024/01/21 02:13:40;;;;;;;14.30;8.57;;;2.60;99.90;;;;;;5080204;28;20193;-42
2024/01/21 02:16:06;;;;;;;13.82;9.13;;;2.60;99.90;;;;;;5063913;28;20305;-48
2024/01/21 02:18:35;;;;;;;14.05;8.77;;;2.60;99.90;;;;;;5080626;28;20197;-49
2024/01/21 02:21:01;;;;;;;12.63;8.02;;;2.60;99.90;;;;;;5085666;28;20186;-47
2024/01/21 02:23:27;;;;;;;14.70;8.23;;;2.60;99.90;;;;;;5085031;28;20704;-47
2024/01/21 02:25:53;;;;;;;12.90;7.65;;;2.60;99.90;;;;;;5084019;28;20217;-49
2024/01/21 02:28:18;;;;;;;12.65;8.30;;;2.50;99.90;;;;;;5085226;28;20217;-47
2024/01/21 02:30:44;;;;;;;12.25;7.85;;;2.50;99.90;;;;;;5084938;28;20204;-45
2024/01/21 02:33:10;;;;;;;15.35;7.80;;;2.50;99.90;;;;;;5085030;28;20201;-49
2024/01/21 02:35:36;;;;;;;11.98;7.63;;;2.50;99.90;;;;;;5083686;28;20382;-50
2024/01/21 02:38:03;;;;;;;13.35;7.88;;;2.50;99.90;;;;;;5083231;28;20282;-48
2024/01/21 02:40:30;;;;;;;13.93;7.75;;;2.50;99.90;;;;;;5084010;28;20198;-51
2024/01/21 02:42:55;;;;;;;12.60;7.68;;;2.50;99.90;;;;;;5081877;28;20194;-48
2024/01/21 02:45:21;;;;;;;12.50;7.10;;;2.50;99.90;;;;;;5084569;28;20186;-50
2024/01/21 02:47:47;;;;;;;11.68;6.97;;;2.50;99.90;;;;;;5082984;28;20212;-47
2024/01/21 02:50:13;;;;;;;12.45;7.28;;;2.50;99.90;;;;;;5085378;28;20924;-47
2024/01/21 02:52:39;;;;;;;12.52;7.03;;;2.50;99.90;;;;;;5084370;28;20238;-49
2024/01/21 02:55:05;;;;;;;13.07;6.95;;;2.50;99.90;;;;;;5084821;28;20346;-48
2024/01/21 02:57:31;;;;;;;9.60;6.40;;;2.50;99.90;;;;;;5084742;28;20197;-49
2024/01/21 02:59:57;;;;;;;11.25;6.80;;;2.60;99.90;;;;;;5084549;28;20693;-48
2024/01/21 03:02:22;;;;;;;12.27;6.45;;;2.60;99.90;;;;;;5084621;28;20262;-50
2024/01/21 03:04:48;;;;;;;11.70;6.85;;;2.60;99.90;;;;;;5084485;28;20760;-48
2024/01/21 03:07:15;;;;;;;14.55;6.35;;;2.60;99.90;;;;;;5084415;28;20640;-49
2024/01/21 03:09:40;;;;;;;10.25;6.45;;;2.60;99.90;;;;;;5084244;28;20193;-48
2024/01/21 03:12:07;;;;;;;12.40;6.35;;;2.70;99.90;;;;;;5064934;28;20258;-51
2024/01/21 03:14:32;;;;;;;12.50;6.60;;;2.70;99.90;;;;;;5085006;28;20186;-51
2024/01/21 03:16:58;;;;;;;12.95;5.82;;;2.70;99.90;;;;;;5084385;28;20243;-51
2024/01/21 03:19:24;;;;;;;11.63;5.85;;;2.70;99.90;;;;;;5084474;28;20197;-52
2024/01/21 03:21:50;;;;;;;9.98;5.65;;;2.70;99.90;;;;;;5083894;28;20193;-49
2024/01/21 03:24:16;;;;;;;10.75;6.07;;;2.70;99.90;;;;;;5083887;28;20214;-48
2024/01/21 03:26:42;;;;;;;11.10;6.10;;;2.70;99.90;;;;;;5083092;28;20763;-46
2024/01/21 03:29:08;;;;;;;10.38;5.63;;;2.70;99.90;;;;;;5084377;28;20238;-49
2024/01/21 03:31:34;;;;;;;9.35;5.15;;;2.70;99.90;;;;;;5082006;28;20190;-48
2024/01/21 03:34:00;;;;;;;9.32;5.95;;;2.70;99.90;;;;;;5084241;28;20228;-47
2024/01/21 03:36:25;;;;;;;11.15;5.65;;;2.70;99.90;;;;;;5083513;28;20189;-45
2024/01/21 03:38:51;;;;;;;9.05;5.40;;;2.70;99.90;;;;;;5083794;28;20190;-50
2024/01/21 03:41:17;;;;;;;11.77;5.40;;;2.70;99.90;;;;;;5083652;28;21133;-48
2024/01/21 03:43:43;;;;;;;9.65;4.93;;;2.70;99.90;;;;;;5083753;28;20220;-50
2024/01/21 03:46:09;;;;;;;8.30;4.85;;;2.60;99.90;;;;;;5083773;28;20527;-48
2024/01/21 03:48:35;;;;;;;7.18;4.65;;;2.60;99.90;;;;;;5082962;28;20198;-49
2024/01/21 03:51:01;;;;;;;8.65;4.63;;;2.60;99.90;;;;;;5084064;28;20249;-47
2024/01/21 03:53:27;;;;;;;10.30;4.57;;;2.60;99.90;;;;;;5082077;28;20728;-47
2024/01/21 03:55:53;;;;;;;7.80;4.82;;;2.60;99.90;;;;;;5082259;28;20186;-45
2024/01/21 03:58:19;;;;;;;7.55;4.55;;;2.60;99.90;;;;;;5082290;28;20201;-46
2024/01/21 04:00:45;;;;;;;8.10;4.93;;;2.60;99.90;;;;;;5083488;28;20190;-50
2024/01/21 04:03:11;;;;;;;7.38;4.68;;;2.50;99.90;;;;;;5082195;28;20202;-51
2024/01/21 04:05:37;;;;;;;7.40;4.40;;;2.50;99.90;;;;;;5083250;28;20182;-46
2024/01/21 04:08:05;;;;;;;9.82;4.75;;;2.50;99.90;;;;;;5083767;28;20186;-47
2024/01/21 04:10:31;;;;;;;6.72;4.20;;;2.60;99.90;;;;;;5083070;28;20265;-48
2024/01/21 04:12:57;;;;;;;10.27;4.25;;;2.50;99.90;;;;;;5083116;28;20268;-49
2024/01/21 04:15:23;;;;;;;6.47;3.72;;;2.50;99.90;;;;;;5082840;28;20182;-49
2024/01/21 04:17:49;;;;;;;10.43;4.10;;;2.50;99.90;;;;;;5083228;28;20190;-51
2024/01/21 04:20:15;;;;;;;6.47;3.75;;;2.50;99.90;;;;;;5082039;28;20186;-50
2024/01/21 04:22:41;;;;;;;7.32;4.20;;;2.50;99.90;;;;;;5082918;28;20206;-49
2024/01/21 04:25:07;;;;;;;7.22;4.18;;;2.50;99.90;;;;;;5083163;28;20277;-47
2024/01/21 04:27:33;;;;;;;13.65;3.70;;;2.50;99.90;;;;;;5082350;28;20213;-49
2024/01/21 04:29:59;;;;;;;8.35;3.90;;;2.50;99.90;;;;;;5082913;28;20186;-48
2024/01/21 04:32:25;;;;;;;7.88;3.90;;;2.50;99.80;;;;;;5083273;28;20220;-47
2024/01/21 04:34:51;;;;;;;8.85;3.65;;;2.60;99.90;;;;;;5082341;28;20201;-49
2024/01/21 04:37:17;;;;;;;8.30;3.50;;;2.60;99.80;;;;;;5082538;28;20955;-46
2024/01/21 04:39:43;;;;;;;5.95;3.55;;;2.60;99.50;;;;;;5082669;28;20217;-48
2024/01/21 04:42:09;;;;;;;5.03;3.33;;;2.60;99.00;;;;;;5081249;28;20250;-52
2024/01/21 04:44:35;;;;;;;7.72;3.20;;;2.60;98.80;;;;;;5082635;28;20798;-50
2024/01/21 04:47:01;;;;;;;6.13;3.72;;;2.70;99.00;;;;;;5064271;28;20194;-50
2024/01/21 04:49:26;;;;;;;5.35;3.20;;;2.70;98.80;;;;;;5082501;28;20204;-50
2024/01/21 04:51:52;;;;;;;5.50;3.42;;;2.70;98.40;;;;;;5081965;28;20177;-52
2024/01/21 04:54:18;;;;;;;5.10;3.20;;;2.80;98.70;;;;;;5081471;28;20224;-49
2024/01/21 04:56:45;;;;;;;4.20;3.08;;;2.80;98.30;;;;;;5082627;28;20190;-50
2024/01/21 04:59:11;;;;;;;6.95;3.90;;;2.80;98.30;;;;;;5081526;28;20665;-48
2024/01/21 05:01:38;;;;;;;5.82;3.00;;;2.90;98.10;;;;;;5082544;28;20186;-49
2024/01/21 05:04:04;;;;;;;6.00;3.05;;;2.90;98.10;;;;;;5081603;28;20635;-52
2024/01/21 05:06:30;;;;;;;5.05;3.22;;;2.90;97.60;;;;;;5082565;28;20254;-49
2024/01/21 05:08:56;;;;;;;5.35;3.10;;;2.90;97.20;;;;;;5080810;28;20178;-47
2024/01/21 05:11:22;;;;;;;4.65;2.80;;;3.00;97.30;;;;;;5081269;28;20184;-49
2024/01/21 05:13:48;;;;;;;5.40;2.85;;;2.90;96.80;;;;;;5081693;28;20304;-51
2024/01/21 05:16:14;;;;;;;4.75;2.85;;;2.90;96.90;;;;;;5080291;28;20684;-53
2024/01/21 05:18:40;;;;;;;4.72;2.95;;;3.00;97.10;;;;;;5082391;28;20242;-53
2024/01/21 05:21:06;;;;;;;5.00;2.83;;;3.00;96.30;;;;;;5082421;28;20186;-48
2024/01/21 05:23:33;;;;;;;4.63;3.10;;;3.00;96.90;;;;;;5082643;28;20629;-53
2024/01/21 05:25:59;;;;;;;5.68;3.08;;;3.00;96.00;;;;;;5082985;28;20218;-51
2024/01/21 05:28:25;;;;;;;4.95;3.30;;;3.10;96.60;;;;;;5081177;28;20185;-52
2024/01/21 05:30:51;;;;;;;6.47;3.17;;;3.00;95.90;;;;;;5081764;28;20201;-50
2024/01/21 05:33:17;;;;;;;5.55;3.15;;;3.00;96.30;;;;;;5081500;28;20189;-48
2024/01/21 05:35:43;;;;;;;5.43;2.80;;;3.10;96.30;;;;;;5081273;28;20201;-50
2024/01/21 05:38:09;;;;;;;4.55;3.00;;;3.10;96.40;;;;;;5080518;28;20717;-52
2024/01/21 05:40:35;;;;;;;6.13;2.83;;;3.10;96.20;;;;;;5080304;28;20209;-45
2024/01/21 05:43:01;;;;;;;4.78;2.95;;;3.10;95.90;;;;;;5080607;28;20666;-48
2024/01/21 05:45:27;;;;;;;5.63;3.15;;;3.20;95.60;;;;;;5081778;28;20189;-52
2024/01/21 05:47:53;;;;;;;4.47;2.83;;;3.10;95.90;;;;;;5081605;28;20194;-52
2024/01/21 05:50:19;;;;;;;5.03;3.22;;;3.20;95.60;;;;;;5081503;28;20186;-49
2024/01/21 05:52:45;;;;;;;7.90;3.00;;;3.20;95.40;;;;;;5081238;28;20313;-49
2024/01/21 05:55:11;;;;;;;5.30;3.22;;;3.20;95.60;;;;;;5081226;28;20193;-52
2024/01/21 05:57:37;;;;;;;4.90;3.40;;;3.20;95.40;;;;;;5081633;28;20193;-50
2024/01/21 06:00:03;;;;;;;4.68;3.13;;;3.20;95.30;;;;;;5080628;28;20189;-51
2024/01/21 06:02:38;;;;;;;6.47;3.63;;;3.20;95.10;;;;;;5080405;28;20265;-53
2024/01/21 06:05:04;;;;;;;5.88;3.60;;;3.30;95.30;;;;;;5081042;28;20218;-46
2024/01/21 06:07:30;;;;;;;4.95;3.13;;;3.30;94.80;;;;;;5081094;28;20189;-50
2024/01/21 06:09:56;;;;;;;8.00;3.67;;;3.30;94.80;;;;;;5081119;28;20560;-49
2024/01/21 06:12:22;;;;;;;6.05;3.67;;;3.40;94.20;;;;;;5081019;28;21173;-50
2024/01/21 06:14:48;;;;;;;7.25;4.03;;;3.40;94.30;;;;;;5081057;28;20263;-47
2024/01/21 06:17:14;;;;;;;5.95;3.80;;;3.40;94.20;;;;;;5081527;28;20182;-52
2024/01/21 06:19:40;;;;;;;9.52;3.85;;;3.40;94.10;;;;;;5080228;28;20196;-47
2024/01/21 06:22:06;;;;;;;5.43;3.53;;;3.40;94.40;;;;;;5081501;28;20265;-47
2024/01/21 06:24:37;;;;;;;6.60;4.15;;;3.40;94.50;;;;;;5080737;28;20206;-50
2024/01/21 06:27:04;;;;;;;5.97;3.80;;;3.40;94.50;;;;;;5080382;28;20225;-48
2024/01/21 06:29:30;;;;;;;6.72;4.32;;;3.40;94.30;;;;;;5079666;28;20711;-50
2024/01/21 06:31:56;;;;;;;5.55;3.95;;;3.50;94.50;;;;;;5081310;28;20194;-52
2024/01/21 06:34:21;;;;;;;6.35;3.95;;;3.40;94.50;;;;;;5081593;28;20186;-52
2024/01/21 06:36:47;;;;;;;6.97;4.15;;;3.40;94.50;;;;;;5080824;28;20202;-49
2024/01/21 06:39:13;;;;;;;6.45;4.40;;;3.40;94.20;;;;;;5080886;28;20626;-49
2024/01/21 06:41:39;;;;;;;7.60;4.53;;;3.40;94.30;;;;;;5080492;28;20189;-49
2024/01/21 06:44:05;;;;;;;7.18;4.50;;;3.40;94.30;;;;;;5079598;28;20209;-49
2024/01/21 06:46:31;;;;;;;7.78;5.18;;;3.40;94.40;;;;;;5081450;28;20197;-46
2024/01/21 06:48:57;;;;;;;7.47;4.78;;;3.40;94.60;;;;;;5080999;28;20220;-49
2024/01/21 06:51:34;;;;;;;7.82;4.80;;;3.40;94.60;;;;;;5063177;28;20188;-50
2024/01/21 06:54:00;;;;;;;8.88;4.97;;;3.40;94.80;;;;;;5080335;28;20899;-51
2024/01/21 06:56:26;;;;;;;8.82;5.15;;;3.40;94.90;;;;;;5080780;28;20190;-48
2024/01/21 06:58:53;;;;;;;8.13;4.90;;;3.40;95.00;;;;;;5080314;28;20648;-47
2024/01/21 07:01:19;;;;;;;8.00;4.53;;;3.40;95.10;;;;;;5080152;28;20190;-51
2024/01/21 07:03:45;;;;;;;7.63;4.47;;;3.40;95.10;;;;;;5080985;28;20233;-49
2024/01/21 07:06:11;;;;;;;10.23;5.07;;;3.40;95.20;;;;;;5080951;28;20204;-50
2024/01/21 07:08:38;;;;;;;8.80;5.18;;;3.40;95.40;;;;;;5084126;28;20201;-48
2024/01/21 07:11:08;;;;;;;8.13;5.05;;;3.40;95.70;;;;;;5066330;28;20659;-53
2024/01/21 07:13:34;;;;;;;8.23;5.32;;;3.40;95.60;;;;;;5049187;28;20190;-51
2024/01/21 07:15:59;;;;;;;10.57;5.18;;;3.40;95.70;;;;;;5083313;28;20603;-48
2024/01/21 07:18:25;;;;;;;8.73;5.20;;;3.40;95.70;;;;;;5082341;28;20239;-48
2024/01/21 07:20:51;;;;;;;8.60;5.07;;;3.40;95.90;;;;;;5084636;28;20634;-50
2024/01/21 07:23:17;;;;;;;25.25;5.47;;;3.40;96.00;;;;;;5084206;28;20186;-54
2024/01/21 07:25:43;;;;;;;9.05;5.32;;;3.40;96.50;;;;;;5083832;28;20201;-47
2024/01/21 07:28:09;;;;;;;10.00;5.72;;;3.40;96.30;;;;;;5083448;28;20182;-50
2024/01/21 07:30:35;;;;;;;8.73;5.80;;;3.40;96.20;;;;;;5082145;28;20276;-55
2024/01/21 07:33:01;;;;;;;9.85;6.00;;;3.40;96.30;;;;;;5082594;28;20196;-47
2024/01/21 07:35:27;;;;;;;9.10;5.20;;;3.40;96.50;;;;;;5081691;28;20194;-47
2024/01/21 07:37:53;;;;;;;8.75;5.78;;;3.40;96.70;;;;;;5082799;28;20193;-48
2024/01/21 07:40:19;;;;;;;9.55;5.60;;;3.40;96.80;;;;;;5084248;28;20185;-48
2024/01/21 07:42:46;;;;;;;11.18;5.60;;;3.40;96.80;;;;;;5083363;28;20204;-50
2024/01/21 07:45:12;;;;;;;9.52;5.60;;;3.40;97.00;;;;;;5065671;28;20220;-51
2024/01/21 07:47:38;;;;;;;8.45;5.50;;;3.40;97.20;;;;;;5083792;28;20189;-53
2024/01/21 07:50:05;;;;;;;8.07;5.53;;;3.40;97.20;;;;;;5083394;28;20186;-49
2024/01/21 07:52:31;;;;;;;9.73;6.03;;;3.40;97.30;;;;;;5065251;28;20932;-51
2024/01/21 07:54:56;;;;;;;14.30;6.15;;;3.40;97.30;;;;;;5083525;28;20190;-49
2024/01/21 07:57:22;;;;;;;14.02;5.95;;;3.40;97.40;;;;;;5082287;28;20194;-49
2024/01/21 07:59:48;;;;;;;12.15;6.25;;;3.40;97.90;;;;;;5082327;28;20190;-51
2024/01/21 08:02:14;;;;;;;8.13;5.60;;;3.40;98.00;;;;;;5082552;28;20194;-49
2024/01/21 08:04:40;;;;;;;14.35;6.00;;;3.40;97.80;;;;;;5081485;28;20310;-49
2024/01/21 08:07:07;;;;;;;11.63;6.43;;;3.40;97.90;;;;;;5081865;28;20266;-52
2024/01/21 08:09:33;;;;;;;11.35;6.15;;;3.40;98.10;;;;;;5083074;28;20193;-51
2024/01/21 08:11:58;;;;;;;8.40;6.03;;;3.40;98.10;;;;;;5082636;28;20194;-53
2024/01/21 08:14:25;;;;;;;9.15;5.93;;;3.40;98.20;;;;;;5082144;28;20194;-50
2024/01/21 08:16:51;;;;;;;8.85;5.85;;;3.40;98.40;;;;;;5080618;28;20186;-51
2024/01/21 08:19:19;;;;;;;10.70;7.18;;;3.40;98.60;;;;;;5082166;28;20424;-47
2024/01/21 08:21:48;;;;;;;10.05;6.35;;;3.50;98.80;;;;;;5082297;28;20193;-49
2024/01/21 08:24:14;;;;;;;10.85;5.82;;;3.50;99.00;;;;;;5081128;28;20213;-51
2024/01/21 08:26:40;;;;;;;9.35;5.88;;;3.50;99.40;;;;;;5082875;28;20226;-51
2024/01/21 08:29:07;;;;;;;22.42;6.10;;;3.50;99.00;;;;;;5064979;28;20192;-52
2024/01/21 08:31:32;;;;;;;9.70;6.22;;;3.50;99.00;;;;;;5064990;28;20235;-52
2024/01/21 08:33:59;;;;;;;10.52;6.32;;;3.60;99.00;;;;;;5063710;28;20186;-51
2024/01/21 08:36:26;;;;;;;11.43;5.72;;;3.60;99.10;;;;;;5063766;28;20556;-52
2024/01/21 08:38:52;;;;;;;12.32;6.03;;;3.60;99.10;;;;;;5081694;28;20262;-53
2024/01/21 08:41:18;;;;;;;10.27;5.82;;;3.60;99.10;;;;;;5080681;28;20189;-52
2024/01/21 08:43:44;;;;;;;11.68;6.13;;;3.70;99.10;;;;;;5082554;28;20212;-50
2024/01/21 08:46:13;;;;;;;8.80;5.95;;;3.70;99.10;;;;;;5081156;28;20194;-51
2024/01/21 08:48:43;;;;;;;10.80;5.93;;;3.70;99.10;;;;;;5081446;28;20646;-52
2024/01/21 08:51:09;;;;;;;7.72;5.35;;;3.70;99.20;;;;;;5082263;28;20188;-51
2024/01/21 08:53:35;;;;;;;10.40;6.03;;;3.70;99.20;;;;;;5082696;28;20959;-46
2024/01/21 08:56:01;;;;;;;9.65;6.18;;;3.70;99.30;;;;;;5081498;28;20200;-50
2024/01/21 08:58:27;;;;;;;19.77;5.95;;;3.80;99.40;;;;;;5081436;28;21103;-49
2024/01/21 09:00:53;;;;;;;11.20;6.63;;;3.80;99.50;;;;;;5082790;28;20185;-48
2024/01/21 09:03:20;;;;;;;8.98;5.90;;;3.90;99.70;;;;;;5082461;28;20178;-51
2024/01/21 09:05:46;;;;;;;9.13;6.13;;;3.90;99.70;;;;;;5064503;28;20289;-48
2024/01/21 09:08:12;;;;;;;12.15;6.30;;;4.00;99.80;;;;;;5081661;28;20193;-49
2024/01/21 09:10:37;;;;;;;12.93;6.75;;;4.00;99.80;;;;;;5081508;28;20190;-50
2024/01/21 09:13:03;;;;;;;11.15;6.68;;;4.00;99.90;;;;;;5081800;28;20181;-50
2024/01/21 09:15:29;;;;;;;9.63;6.18;;;4.10;99.90;;;;;;5082085;28;20189;-52
2024/01/21 09:17:55;;;;;;;10.40;6.07;;;4.10;99.90;;;;;;5080631;28;20202;-49
2024/01/21 09:20:21;;;;;;;11.40;6.40;;;4.10;99.90;;;;;;5082174;28;20198;-48
2024/01/21 09:22:47;;;;;;;12.13;6.57;;;4.10;99.90;;;;;;5081167;28;20190;-46
2024/01/21 09:25:13;;;;;;;14.57;6.55;;;4.10;99.90;;;;;;5080139;28;20206;-51
2024/01/21 09:27:39;;;;;;;9.98;6.32;;;4.20;99.90;;;;;;5081358;28;20218;-46
2024/01/21 09:30:06;;;;;;;11.68;6.47;;;4.20;99.90;;;;;;5063265;28;20315;-48
2024/01/21 09:32:32;;;;;;;10.80;6.97;;;4.30;99.90;;;;;;5081943;28;20193;-46
2024/01/21 09:34:57;;;;;;;11.02;6.35;;;4.30;99.90;;;;;;5080608;28;20556;-49
2024/01/21 09:37:23;;;;;;;10.15;6.43;;;4.40;99.90;;;;;;5081643;28;20250;-46
2024/01/21 09:39:49;;;;;;;11.68;6.80;;;4.40;99.90;;;;;;5081051;28;20192;-50
2024/01/21 09:42:17;;;;;;;12.00;7.53;;;4.40;99.90;;;;;;5081263;28;20202;-50
2024/01/21 09:44:44;;;;;;;12.52;6.75;;;4.50;99.90;;;;;;5081348;28;20641;-52
2024/01/21 09:47:11;;;;;;;10.02;6.45;;;4.50;99.90;;;;;;5080760;28;20201;-49
2024/01/21 09:49:37;;;;;;;9.65;6.57;;;4.50;99.90;;;;;;5081188;28;20182;-49
2024/01/21 09:52:04;;;;;;;10.48;6.97;;;4.60;99.90;;;;;;5081424;28;20201;-51
2024/01/21 09:54:31;;;;;;;12.35;7.55;;;4.60;99.90;;;;;;5081568;28;20234;-47
2024/01/21 09:56:57;;;;;;;10.52;6.47;;;4.60;99.90;;;;;;5080585;28;20193;-50
2024/01/21 09:59:22;;;;;;;12.18;7.10;;;4.70;99.90;;;;;;5079612;28;20657;-49
2024/01/21 10:01:48;;;;;;;11.38;7.10;;;4.70;99.90;;;;;;5082082;28;20566;-53
2024/01/21 10:04:16;;;;;;;11.43;7.10;;;4.80;99.90;;;;;;5080956;28;20206;-48
2024/01/21 10:06:43;;;;;;;10.25;6.90;;;4.80;99.90;;;;;;5080837;28;20201;-54
2024/01/21 10:09:19;;;;;;;11.35;6.80;;;4.90;99.90;;;;;;5079282;28;20645;-45
2024/01/21 10:11:56;;;;;;;11.57;6.80;;;4.90;99.90;;;;;;5080374;28;20191;-49
2024/01/21 10:14:25;;;;;;;13.70;8.02;;;4.90;99.90;;;;;;5080432;28;20288;-49
2024/01/21 10:16:51;;;;;;;11.30;7.05;;;4.90;99.90;;;;;;5080523;28;20190;-49
2024/01/21 10:19:33;;;;;;;12.10;7.15;;;5.00;99.90;;;;;;5080173;28;20192;-49
2024/01/21 10:22:08;;;;;;;10.68;6.60;;;5.00;99.90;;;;;;5080055;28;20189;-46
2024/01/21 10:24:47;;;;;;;12.18;7.38;;;5.00;99.90;;;;;;5079465;28;20220;-45
2024/01/21 10:27:13;;;;;;;12.88;7.22;;;5.10;99.90;;;;;;5078423;28;20229;-47
2024/01/21 10:29:43;;;;;;;12.80;7.63;;;5.20;99.90;;;;;;5079466;28;20184;-46
2024/01/21 10:32:11;;;;;;;14.80;6.90;;;5.30;99.90;;;;;;5079402;28;20209;-53
2024/01/21 10:34:43;;;;;;;11.90;7.50;;;5.40;99.90;;;;;;5079005;28;20193;-48
2024/01/21 10:37:10;;;;;;;10.75;7.28;;;5.40;99.90;;;;;;5078586;28;20189;-49
2024/01/21 10:39:37;;;;;;;13.40;8.25;;;5.50;99.90;;;;;;5078406;28;20258;-47
2024/01/21 10:42:05;;;;;;;13.10;8.32;;;5.50;99.90;;;;;;5085219;28;20717;-51
2024/01/21 10:44:34;;;;;;;12.75;7.93;;;5.50;99.90;;;;;;5084523;28;20229;-49
2024/01/21 10:47:02;;;;;;;11.73;7.80;;;5.50;99.90;;;;;;5084403;28;20186;-48
2024/01/21 10:49:31;;;;;;;13.02;7.82;;;5.50;99.90;;;;;;5085041;28;20208;-50
2024/01/21 10:51:58;;;;;;;14.85;8.32;;;5.50;99.90;;;;;;5083969;28;20596;-52
2024/01/21 10:54:25;;;;;;;12.75;7.78;;;5.50;99.90;;;;;;5084364;28;20672;-52
2024/01/21 10:56:51;;;;;;;14.13;8.57;;;5.50;99.90;;;;;;5084134;28;20213;-45
2024/01/21 10:59:18;;;;;;;15.38;8.27;;;5.50;99.90;;;;;;5082885;28;20274;-41
2024/01/21 11:01:45;;;;;;;15.52;8.88;;;5.50;99.90;;;;;;5083816;28;20262;-39
2024/01/21 11:04:12;;;;;;;12.07;8.02;;;5.50;99.90;;;;;;5083288;28;20201;-39
2024/01/21 11:06:44;;;;;;;11.88;8.57;;;5.60;99.90;;;;;;5084354;28;20220;-43
2024/01/21 11:09:10;;;;;;;13.13;8.38;;;5.60;99.90;;;;;;5083568;28;20514;-43
2024/01/21 11:11:46;;;;;;;14.75;8.32;;;5.60;99.90;;;;;;5084092;28;20182;-40
2024/01/21 11:14:31;;;;;;;12.52;8.20;;;5.70;99.90;;;;;;5084244;28;20258;-42
2024/01/21 11:16:58;;;;;;;12.98;8.23;;;5.70;99.90;;;;;;5084101;28;20297;-40
2024/01/21 11:19:24;;;;;;;15.07;8.25;;;5.70;99.90;;;;;;5083707;28;21034;-43
2024/01/21 11:21:55;;;;;;;11.75;7.65;;;5.80;99.90;;;;;;5082040;28;20291;-43
2024/01/21 11:24:31;;;;;;;12.27;7.65;;;5.80;99.90;;;;;;5082945;28;20198;-39
2024/01/21 11:26:58;;;;;;;13.52;8.25;;;5.80;99.90;;;;;;5082486;28;20228;-41
2024/01/21 11:29:30;;;;;;;13.35;8.15;;;5.90;99.90;;;;;;5082448;28;20186;-49
2024/01/21 11:31:58;;;;;;;15.93;8.50;;;5.90;99.90;;;;;;5082226;28;20281;-43
2024/01/21 11:34:25;;;;;;;13.63;8.30;;;5.90;99.90;;;;;;5083265;28;20277;-43
2024/01/21 11:36:51;;;;;;;13.57;8.77;;;6.00;99.90;;;;;;5083362;28;20213;-44
2024/01/21 11:39:24;;;;;;;12.70;8.20;;;6.00;99.90;;;;;;5081739;28;20268;-40
2024/01/21 11:41:50;;;;;;;16.05;8.93;;;6.00;99.90;;;;;;5083614;28;20209;-41
2024/01/21 11:44:30;;;;;;;15.60;9.15;;;6.00;99.90;;;;;;5082707;28;20233;-45
2024/01/21 11:47:04;;;;;;;12.00;8.15;;;6.00;99.90;;;;;;5083165;28;20197;-41
2024/01/21 11:49:31;;;;;;;16.90;9.02;;;6.10;99.90;;;;;;5082688;28;20563;-46
2024/01/21 11:52:00;;;;;;;13.15;8.57;;;6.00;99.90;;;;;;5083432;28;20201;-45
2024/01/21 11:54:26;;;;;;;14.07;8.70;;;6.10;99.90;;;;;;5082890;28;20182;-41
2024/01/21 11:56:55;;;;;;;13.10;8.77;;;6.10;99.90;;;;;;5082869;28;20177;-40
2024/01/21 11:59:21;;;;;;;13.95;8.68;;;6.10;99.90;;;;;;5082667;28;20186;-40
2024/01/21 12:01:48;;;;;;;15.77;8.73;;;6.10;99.90;;;;;;5082880;28;20574;-41
2024/01/21 12:04:14;;;;;;;14.65;8.52;;;6.10;99.90;;;;;;5082147;28;20429;-44
2024/01/21 12:06:51;;;;;;;15.55;8.88;;;6.00;99.90;;;;;;5083255;28;20182;-44
2024/01/21 12:09:17;;;;;;;15.32;9.35;;;6.00;99.90;;;;;;5082937;28;20190;-41
2024/01/21 12:11:43;;;;;;;15.43;9.35;;;6.00;99.90;;;;;;5082170;28;20215;-40
2024/01/21 12:14:13;;;;;;;17.40;9.35;;;6.00;99.90;;;;;;5081416;28;20192;-41
2024/01/21 12:16:44;;;;;;;14.18;8.48;;;6.00;99.90;;;;;;5081179;28;20189;-46
2024/01/21 12:19:13;;;;;;;13.55;8.90;;;6.00;99.90;;;;;;5082290;28;20186;-42
2024/01/21 12:21:42;;;;;;;12.88;8.77;;;6.00;99.90;;;;;;5081594;28;20649;-40
2024/01/21 12:24:08;;;;;;;16.23;9.18;;;6.00;99.90;;;;;;5082224;28;20206;-41
2024/01/21 12:26:34;;;;;;;15.60;9.02;;;6.00;99.90;;;;;;5081879;28;20225;-41
2024/01/21 12:29:09;;;;;;;19.17;9.90;;;6.00;99.90;;;;;;5082577;28;20216;-43
2024/01/21 12:31:40;;;;;;;15.93;9.00;;;5.90;99.90;;;;;;5081036;28;20182;-42
2024/01/21 12:34:11;;;;;;;12.45;8.77;;;5.90;99.90;;;;;;5082025;28;20263;-40
2024/01/21 12:36:41;;;;;;;17.23;9.38;;;5.90;99.90;;;;;;5080857;28;20296;-40
2024/01/21 12:39:09;;;;;;;16.27;9.68;;;5.90;99.90;;;;;;5081992;28;20193;-42
2024/01/21 12:41:35;;;;;;;17.52;9.77;;;5.90;99.90;;;;;;5081531;28;20555;-43
2024/01/21 12:44:02;;;;;;;14.85;9.88;;;6.00;99.90;;;;;;5080522;28;20245;-42
2024/01/21 12:46:28;;;;;;;15.73;9.60;;;5.90;99.90;;;;;;5081807;28;20190;-46
2024/01/21 12:48:53;;;;;;;18.30;9.88;;;6.00;99.90;;;;;;5081697;28;20710;-47